Time;durP1;ratioP1;P1;durP2;ratioP2;P2;SDS_P1;SDS_P2;PMS_P1;PMS_P2;Temp;Humidity;BMP_temperature;BMP_pressure;BME280_temperature;BME280_humidity;BME280_pressure;Samples;Min_cycle;Max_cycle;Signal;HPM_P1;HPM_P2
2022/03/29 00:00:06;;;;;;;65.28;42.42;;;;;;;;;;4452568;32;19941;-80
2022/03/29 00:02:31;;;;;;;;;;;;;;;;;;4453507;32;20084;-80
2022/03/29 00:05:04;;;;;;;70.95;43.22;;;;;;;;;;4438877;32;19937;-79
2022/03/29 00:07:30;;;;;;;72.35;46.10;;;;;;;;;;4453373;32;20097;-79
2022/03/29 00:09:55;;;;;;;;;;;;;;;;;;4439683;32;20021;-79
2022/03/29 00:12:20;;;;;;;72.18;42.97;;;;;;;;;;4438657;32;19937;-80
2022/03/29 00:14:45;;;;;;;;;;;;;;;;;;4453389;32;20044;-80
2022/03/29 00:17:11;;;;;;;68.32;41.92;;;;;;;;;;4453556;32;19959;-79
2022/03/29 00:19:36;;;;;;;;;;;;;;;;;;4453319;32;20117;-80
2022/03/29 00:22:01;;;;;;;70.40;44.50;;;;;;;;;;4452520;32;19936;-81
2022/03/29 00:24:26;;;;;;;;;;;;;;;;;;4452908;32;20022;-81
2022/03/29 00:26:51;;;;;;;67.45;42.45;;;;;;;;;;4452476;32;20314;-80
2022/03/29 00:29:17;;;;;;;;;;;;;;;;;;4452946;32;20388;-80
2022/03/29 00:31:42;;;;;;;71.55;44.15;;;;;;;;;;4452394;32;19955;-80
2022/03/29 00:34:07;;;;;;;;;;;;;;;;;;4452650;32;20021;-80
2022/03/29 00:36:32;;;;;;;75.55;45.47;;;;;;;;;;4452398;32;19947;-80
2022/03/29 00:38:58;;;;;;;;;;;;;;;;;;4454680;26;20157;-76
2022/03/29 00:41:23;;;;;;;71.45;43.15;;;;;;;;;;4422179;32;19937;-76
2022/03/29 00:43:48;;;;;;;;;;;;;;;;;;4420090;32;20463;-76
2022/03/29 00:46:13;;;;;;;70.20;43.78;;;;;;;;;;4421146;32;19948;-76
2022/03/29 00:48:38;;;;;;;;;;;;;;;;;;4423215;32;20396;-77
2022/03/29 00:51:04;;;;;;;80.93;47.92;;;;;;;;;;4421150;32;19951;-76
2022/03/29 00:53:29;;;;;;;;;;;;;;;;;;4420911;32;20061;-77
2022/03/29 00:55:55;;;;;;;80.10;47.58;;;;;;;;;;4422216;32;19969;-77
2022/03/29 00:58:20;;;;;;;;;;;;;;;;;;4420272;32;20042;-76
2022/03/29 01:00:46;;;;;;;79.47;47.62;;;;;;;;;;4422927;32;19933;-76
2022/03/29 01:03:12;;;;;;;71.10;44.25;;;;;;;;;;4419932;32;20075;-76
2022/03/29 01:05:37;;;;;;;;;;;;;;;;;;4419652;32;20391;-76
2022/03/29 01:08:03;;;;;;;76.50;47.90;;;;;;;;;;4421837;32;20093;-76
2022/03/29 01:10:28;;;;;;;;;;;;;;;;;;4422794;32;20022;-77
2022/03/29 01:12:57;;;;;;;66.95;42.47;;;;;;;;;;4419023;32;19951;-76
2022/03/29 01:15:23;;;;;;;72.03;43.60;;;;;;;;;;4421419;32;20129;-76
2022/03/29 01:17:48;;;;;;;76.15;45.95;;;;;;;;;;4420628;32;20061;-76
2022/03/29 01:20:14;;;;;;;;;;;;;;;;;;4420137;32;20129;-77
2022/03/29 01:22:40;;;;;;;74.60;45.33;;;;;;;;;;4422530;32;19974;-75
2022/03/29 01:25:06;;;;;;;71.35;44.63;;;;;;;;;;4419737;32;20366;-76
2022/03/29 01:27:31;;;;;;;;;;;;;;;;;;4422746;32;20038;-76
2022/03/29 01:29:59;;;;;;;72.05;45.53;;;;;;;;;;4420105;32;20048;-76
2022/03/29 01:32:28;;;;;;;76.82;45.53;;;;;;;;;;4420462;32;20072;-76
2022/03/29 01:34:54;;;;;;;77.82;49.13;;;;;;;;;;4420519;32;20071;-75
2022/03/29 01:37:19;;;;;;;;;;;;;;;;;;4422459;32;20025;-75
2022/03/29 01:39:44;;;;;;;70.40;45.92;;;;;;;;;;4420237;32;20014;-76
2022/03/29 01:42:09;;;;;;;;;;;;;;;;;;4421051;32;20407;-75
2022/03/29 01:44:34;;;;;;;68.90;41.30;;;;;;;;;;4422046;32;19977;-76
2022/03/29 01:46:59;;;;;;;;;;;;;;;;;;4421852;32;20017;-76
2022/03/29 01:49:25;;;;;;;72.55;44.00;;;;;;;;;;4419480;32;19992;-77
2022/03/29 01:51:50;;;;;;;;;;;;;;;;;;4422057;32;20442;-77
2022/03/29 01:54:15;;;;;;;83.82;46.88;;;;;;;;;;4421553;32;20247;-76
2022/03/29 01:56:40;;;;;;;;;;;;;;;;;;4421549;32;20049;-77
2022/03/29 01:59:08;;;;;;;84.87;47.58;;;;;;;;;;4420982;32;19952;-76
2022/03/29 02:01:43;;;;;;;82.28;48.80;;;;;;;;;;4405327;32;20022;-76
2022/03/29 02:04:08;;;;;;;76.90;48.00;;;;;;;;;;4406120;32;20075;-75
2022/03/29 02:06:34;;;;;;;;;;;;;;;;;;4404685;32;20065;-76
2022/03/29 02:08:59;;;;;;;86.35;50.88;;;;;;;;;;4405656;32;19949;-75
2022/03/29 02:11:24;;;;;;;;;;;;;;;;;;4405650;32;20056;-76
2022/03/29 02:13:49;;;;;;;80.07;46.65;;;;;;;;;;4404052;32;20299;-77
2022/03/29 02:16:14;;;;;;;;;;;;;;;;;;4406012;32;20138;-77
2022/03/29 02:18:39;;;;;;;85.25;48.87;;;;;;;;;;4404648;32;19933;-76
2022/03/29 02:21:04;;;;;;;;;;;;;;;;;;4406337;32;20061;-76
2022/03/29 02:23:30;;;;;;;95.45;50.28;;;;;;;;;;4404753;32;19934;-76
2022/03/29 02:25:55;;;;;;;;;;;;;;;;;;4405001;32;20038;-76
2022/03/29 02:28:20;;;;;;;96.78;49.30;;;;;;;;;;4418192;32;20360;-76
2022/03/29 02:30:46;;;;;;;;;;;;;;;;;;4424101;32;20026;-76
2022/03/29 02:33:11;;;;;;;100.05;51.65;;;;;;;;;;4421923;32;19934;-76
2022/03/29 02:35:36;;;;;;;;;;;;;;;;;;4423890;32;20140;-76
2022/03/29 02:38:01;;;;;;;87.88;48.38;;;;;;;;;;4422000;32;19947;-77
2022/03/29 02:40:26;;;;;;;;;;;;;;;;;;4425375;32;20079;-76
2022/03/29 02:42:52;;;;;;;95.35;47.97;;;;;;;;;;4421791;32;20000;-75
2022/03/29 02:45:17;;;;;;;;;;;;;;;;;;4422906;32;20392;-75
2022/03/29 02:47:44;;;;;;;90.15;48.15;;;;;;;;;;4421709;32;19932;-76
2022/03/29 02:50:09;;;;;;;106.15;52.17;;;;;;;;;;4422029;32;20038;-76
2022/03/29 02:52:34;;;;;;;;;;;;;;;;;;4422436;32;20034;-75
2022/03/29 02:54:59;;;;;;;83.25;45.75;;;;;;;;;;4421994;32;20314;-76
2022/03/29 02:57:25;;;;;;;;;;;;;;;;;;4424080;32;20109;-76
2022/03/29 02:59:50;;;;;;;110.28;50.05;;;;;;;;;;4422656;32;19988;-77
2022/03/29 03:02:15;;;;;;;;;;;;;;;;;;4421751;32;20045;-76
2022/03/29 03:04:40;;;;;;;113.47;50.80;;;;;;;;;;4421645;32;19969;-76
2022/03/29 03:07:05;;;;;;;;;;;;;;;;;;4422910;32;20362;-77
2022/03/29 03:09:30;;;;;;;112.25;51.25;;;;;;;;;;4422837;32;19941;-77
2022/03/29 03:11:56;;;;;;;;;;;;;;;;;;4424531;32;20060;-77
2022/03/29 03:14:21;;;;;;;96.85;47.88;;;;;;;;;;4423178;32;20285;-76
2022/03/29 03:16:46;;;;;;;;;;;;;;;;;;4421479;32;20023;-76
2022/03/29 03:19:12;;;;;;;96.90;47.35;;;;;;;;;;4422630;32;19947;-75
2022/03/29 03:21:37;;;;;;;88.50;47.22;;;;;;;;;;4421575;32;20014;-77
2022/03/29 03:24:02;;;;;;;;;;;;;;;;;;4422306;32;20079;-75
2022/03/29 03:26:27;;;;;;;93.55;47.30;;;;;;;;;;4422731;32;20004;-75
2022/03/29 03:28:53;;;;;;;;;;;;;;;;;;4408801;32;20085;-76
2022/03/29 03:31:18;;;;;;;96.43;48.20;;;;;;;;;;4408531;32;20353;-76
2022/03/29 03:33:43;;;;;;;;;;;;;;;;;;4408023;32;20638;-76
2022/03/29 03:36:08;;;;;;;108.97;49.10;;;;;;;;;;4407728;32;19964;-75
2022/03/29 03:38:33;;;;;;;;;;;;;;;;;;4406250;32;20077;-75
2022/03/29 03:40:58;;;;;;;112.57;49.60;;;;;;;;;;4406324;32;20380;-75
2022/03/29 03:43:23;;;;;;;;;;;;;;;;;;4406672;32;20092;-77
2022/03/29 03:45:48;;;;;;;112.47;48.28;;;;;;;;;;4408421;32;20283;-75
2022/03/29 03:48:14;;;;;;;;;;;;;;;;;;4406646;32;20104;-75
2022/03/29 03:50:39;;;;;;;168.30;53.70;;;;;;;;;;4407125;32;19950;-75
2022/03/29 03:53:04;;;;;;;;;;;;;;;;;;4408436;32;20049;-75
2022/03/29 03:55:29;;;;;;;107.03;47.50;;;;;;;;;;4407602;32;20311;-75
2022/03/29 03:57:54;;;;;;;;;;;;;;;;;;4407109;32;20023;-76
2022/03/29 04:00:21;;;;;;;125.53;50.20;;;;;;;;;;4407575;32;19945;-76
2022/03/29 04:02:49;;;;;;;91.90;45.35;;;;;;;;;;4405673;32;20156;-76
2022/03/29 04:05:14;;;;;;;101.80;49.05;;;;;;;;;;4406842;32;20089;-76
2022/03/29 04:07:39;;;;;;;;;;;;;;;;;;4407364;32;20022;-76
2022/03/29 04:10:05;;;;;;;116.15;52.62;;;;;;;;;;4412505;32;20031;-76
2022/03/29 04:12:30;;;;;;;;;;;;;;;;;;4421053;32;20093;-76
2022/03/29 04:14:55;;;;;;;125.38;50.58;;;;;;;;;;4419883;32;20580;-76
2022/03/29 04:17:20;;;;;;;;;;;;;;;;;;4406922;32;20114;-76
2022/03/29 04:19:45;;;;;;;119.93;51.45;;;;;;;;;;4406969;32;19967;-76
2022/03/29 04:22:11;;;;;;;;;;;;;;;;;;4408789;32;20045;-76
2022/03/29 04:24:36;;;;;;;86.93;44.17;;;;;;;;;;4421344;32;19945;-76
2022/03/29 04:27:01;;;;;;;;;;;;;;;;;;4421862;32;20031;-77
2022/03/29 04:29:27;;;;;;;119.45;52.30;;;;;;;;;;4423226;32;19937;-75
2022/03/29 04:31:52;;;;;;;;;;;;;;;;;;4421513;32;20474;-76
2022/03/29 04:34:17;;;;;;;133.37;52.62;;;;;;;;;;4422023;32;19947;-76
2022/03/29 04:36:42;;;;;;;;;;;;;;;;;;4422726;32;20074;-76
2022/03/29 04:39:07;;;;;;;130.27;50.30;;;;;;;;;;4417445;32;19932;-77
2022/03/29 04:41:34;;;;;;;;;;;;;;;;;;4421675;32;20383;-76
2022/03/29 04:43:59;;;;;;;136.55;50.83;;;;;;;;;;4421953;32;20239;-76
2022/03/29 04:46:24;;;;;;;;;;;;;;;;;;4421211;32;20030;-76
2022/03/29 04:48:52;;;;;;;133.05;49.83;;;;;;;;;;4422912;32;19937;-76
2022/03/29 04:51:17;;;;;;;123.65;52.03;;;;;;;;;;4410466;32;20022;-76
2022/03/29 04:53:42;;;;;;;;;;;;;;;;;;4408619;32;20114;-74
2022/03/29 04:56:07;;;;;;;121.43;49.28;;;;;;;;;;4409070;32;19977;-76
2022/03/29 04:58:32;;;;;;;;;;;;;;;;;;4407912;32;20140;-76
2022/03/29 05:00:58;;;;;;;147.95;53.17;;;;;;;;;;4407409;32;20293;-76
2022/03/29 05:03:23;;;;;;;;;;;;;;;;;;4393147;32;20118;-75
2022/03/29 05:05:49;;;;;;;126.43;48.28;;;;;;;;;;4405355;32;19933;-76
2022/03/29 05:08:14;;;;;;;;;;;;;;;;;;4410707;32;20065;-75
2022/03/29 05:10:39;;;;;;;152.60;53.80;;;;;;;;;;4422252;32;19933;-76
2022/03/29 05:13:04;;;;;;;;;;;;;;;;;;4422115;32;20412;-76
2022/03/29 05:15:29;;;;;;;122.93;53.80;;;;;;;;;;4406659;32;19933;-76
2022/03/29 05:17:55;;;;;;;;;;;;;;;;;;4406209;32;20438;-75
2022/03/29 05:20:20;;;;;;;113.93;49.33;;;;;;;;;;4408593;32;19987;-76
2022/03/29 05:22:45;;;;;;;;;;;;;;;;;;4411588;32;20447;-77
2022/03/29 05:25:11;;;;;;;124.57;54.10;;;;;;;;;;4411979;32;19945;-78
2022/03/29 05:27:37;;;;;;;116.97;51.92;;;;;;;;;;4410566;32;20420;-78
2022/03/29 05:30:02;;;;;;;;;;;;;;;;;;4411826;32;20069;-79
2022/03/29 05:32:27;;;;;;;133.35;52.13;;;;;;;;;;4410791;32;19977;-79
2022/03/29 05:34:52;;;;;;;;;;;;;;;;;;4413423;32;20428;-78
2022/03/29 05:37:17;;;;;;;104.10;49.15;;;;;;;;;;4412157;32;19937;-78
2022/03/29 05:39:43;;;;;;;;;;;;;;;;;;4412324;32;20057;-79
2022/03/29 05:42:10;;;;;;;128.48;52.35;;;;;;;;;;4412522;32;19933;-77
2022/03/29 05:44:35;;;;;;;124.97;54.60;;;;;;;;;;4411622;32;20082;-79
2022/03/29 05:49:44;;;;;;;103.60;48.72;;;;;;;;;;4412847;32;20069;-77
2022/03/29 05:52:09;;;;;;;;;;;;;;;;;;4410849;32;20034;-78
2022/03/29 05:54:35;;;;;;;139.30;57.55;;;;;;;;;;4411855;32;19977;-79
2022/03/29 05:57:00;;;;;;;;;;;;;;;;;;4411026;32;20156;-79
2022/03/29 05:59:25;;;;;;;130.55;57.97;;;;;;;;;;4412441;32;19942;-79
2022/03/29 06:01:51;;;;;;;;;;;;;;;;;;4414710;32;20098;-79
2022/03/29 06:04:17;;;;;;;119.37;54.05;;;;;;;;;;4409833;32;19952;-79
2022/03/29 06:06:44;;;;;;;117.97;53.35;;;;;;;;;;4410217;32;20025;-78
2022/03/29 06:09:10;;;;;;;122.30;54.03;;;;;;;;;;4413627;32;20064;-79
2022/03/29 06:11:35;;;;;;;;;;;;;;;;;;4411680;32;20023;-79
2022/03/29 06:14:02;;;;;;;103.03;49.75;;;;;;;;;;4409533;32;19948;-79
2022/03/29 06:16:27;;;;;;;122.55;56.13;;;;;;;;;;4409880;32;20018;-79
2022/03/29 06:18:52;;;;;;;;;;;;;;;;;;4416229;32;20057;-80
2022/03/29 06:21:18;;;;;;;102.50;50.78;;;;;;;;;;4413371;32;19971;-79
2022/03/29 06:23:43;;;;;;;;;;;;;;;;;;4404264;32;20532;-79
2022/03/29 06:26:09;;;;;;;100.07;46.75;;;;;;;;;;4403390;32;20361;-80
2022/03/29 06:28:34;;;;;;;;;;;;;;;;;;4404274;32;20080;-78
2022/03/29 06:30:59;;;;;;;92.05;49.05;;;;;;;;;;4405817;32;19989;-78
2022/03/29 06:33:26;;;;;;;;;;;;;;;;;;4405654;32;20476;-81
2022/03/29 06:35:52;;;;;;;87.93;45.08;;;;;;;;;;4405755;32;19950;-79
2022/03/29 06:38:21;;;;;;;;;;;;;;;;;;4406655;32;20057;-81
2022/03/29 06:40:47;;;;;;;83.22;41.50;;;;;;;;;;4407362;32;19945;-78
2022/03/29 06:43:12;;;;;;;84.03;43.58;;;;;;;;;;4404235;32;20397;-79
2022/03/29 06:45:37;;;;;;;;;;;;;;;;;;4403106;32;20026;-78
2022/03/29 06:48:03;;;;;;;88.37;43.67;;;;;;;;;;4405216;32;19971;-80
2022/03/29 06:50:28;;;;;;;;;;;;;;;;;;4404464;32;20019;-78
2022/03/29 06:52:54;;;;;;;88.28;45.17;;;;;;;;;;4406056;32;19971;-78
2022/03/29 06:55:21;;;;;;;;;;;;;;;;;;4404895;32;20117;-78
2022/03/29 06:57:46;;;;;;;95.03;43.65;;;;;;;;;;4404731;32;19957;-79
2022/03/29 07:00:12;;;;;;;;;;;;;;;;;;4392299;32;20026;-79
2022/03/29 07:02:37;;;;;;;90.57;44.22;;;;;;;;;;4403848;32;19934;-79
2022/03/29 07:05:02;;;;;;;;;;;;;;;;;;4405289;32;20348;-80
2022/03/29 07:07:27;;;;;;;81.12;41.03;;;;;;;;;;4407144;32;20283;-79
2022/03/29 07:12:57;;;;;;;87.75;43.75;;;;;;;;;;4406870;32;19941;-78
2022/03/29 07:15:23;;;;;;;86.87;43.83;;;;;;;;;;4406570;32;20022;-77
2022/03/29 07:17:49;;;;;;;90.00;44.88;;;;;;;;;;4406782;32;20368;-76
2022/03/29 07:20:16;;;;;;;;;;;;;;;;;;4408993;32;20086;-78
2022/03/29 07:22:42;;;;;;;83.60;45.40;;;;;;;;;;4406651;32;19929;-77
2022/03/29 07:25:07;;;;;;;;;;;;;;;;;;4407771;32;20309;-77
2022/03/29 07:27:33;;;;;;;76.87;43.17;;;;;;;;;;4406401;32;19956;-78
2022/03/29 07:29:59;;;;;;;;;;;;;;;;;;4406528;32;20463;-78
2022/03/29 07:32:24;;;;;;;73.37;40.67;;;;;;;;;;4408333;32;19968;-78
2022/03/29 07:34:51;;;;;;;;;;;;;;;;;;4410076;32;20502;-77
2022/03/29 07:37:16;;;;;;;67.60;40.25;;;;;;;;;;4410753;32;19961;-79
2022/03/29 07:39:41;;;;;;;;;;;;;;;;;;4408435;32;20042;-79
2022/03/29 07:42:07;;;;;;;60.65;34.75;;;;;;;;;;4409974;32;19941;-78
2022/03/29 07:44:32;;;;;;;;;;;;;;;;;;4394285;32;20023;-79
2022/03/29 07:46:57;;;;;;;54.15;33.60;;;;;;;;;;4408260;32;19967;-78
2022/03/29 07:49:22;;;;;;;;;;;;;;;;;;4408097;32;20056;-78
2022/03/29 07:51:47;;;;;;;49.85;33.08;;;;;;;;;;4408275;32;19979;-78
2022/03/29 07:54:13;;;;;;;;;;;;;;;;;;4407864;32;20053;-78
2022/03/29 07:56:38;;;;;;;55.67;31.37;;;;;;;;;;4406355;32;19963;-78
2022/03/29 07:59:03;;;;;;;;;;;;;;;;;;4410129;32;20181;-79
2022/03/29 08:01:29;;;;;;;53.40;33.33;;;;;;;;;;4407766;32;19974;-77
2022/03/29 08:03:55;;;;;;;;;;;;;;;;;;4406617;32;20519;-78
2022/03/29 08:06:20;;;;;;;49.88;29.75;;;;;;;;;;4407202;32;20263;-78
2022/03/29 08:08:45;;;;;;;;;;;;;;;;;;4407306;32;20030;-78
2022/03/29 08:11:11;;;;;;;52.83;31.55;;;;;;;;;;4406483;32;19937;-79
2022/03/29 08:13:37;;;;;;;49.75;30.75;;;;;;;;;;4406997;32;20331;-79
2022/03/29 08:16:02;;;;;;;;;;;;;;;;;;4409288;32;20018;-80
2022/03/29 08:18:31;;;;;;;49.05;30.30;;;;;;;;;;4407097;32;19982;-79
2022/03/29 08:20:56;;;;;;;54.78;34.97;;;;;;;;;;4405671;32;20428;-79
2022/03/29 08:23:21;;;;;;;;;;;;;;;;;;4407316;32;20022;-78
2022/03/29 08:25:47;;;;;;;52.22;32.05;;;;;;;;;;4406959;32;20001;-79
2022/03/29 08:28:12;;;;;;;;;;;;;;;;;;4407323;32;20073;-78
2022/03/29 08:30:38;;;;;;;59.00;32.33;;;;;;;;;;4407547;32;19982;-79
2022/03/29 08:33:03;;;;;;;;;;;;;;;;;;4406808;32;20038;-80
2022/03/29 08:35:29;;;;;;;50.72;32.42;;;;;;;;;;4407813;32;19938;-78
2022/03/29 08:37:54;;;;;;;55.75;33.97;;;;;;;;;;4405131;32;20065;-78
2022/03/29 08:40:21;;;;;;;;;;;;;;;;;;4405319;32;20079;-78
2022/03/29 08:42:47;;;;;;;52.55;31.65;;;;;;;;;;4405064;32;19929;-77
2022/03/29 08:45:12;;;;;;;;;;;;;;;;;;4407067;32;20049;-78
2022/03/29 08:47:39;;;;;;;46.75;31.15;;;;;;;;;;4404908;32;20327;-78
2022/03/29 08:50:04;;;;;;;59.65;33.10;;;;;;;;;;4406319;32;20114;-79
2022/03/29 08:52:29;;;;;;;;;;;;;;;;;;4406808;32;20088;-79
2022/03/29 08:54:56;;;;;;;59.55;34.22;;;;;;;;;;4405686;32;19948;-77
2022/03/29 08:57:21;;;;;;;52.13;35.35;;;;;;;;;;4405144;32;20030;-77
2022/03/29 08:59:46;;;;;;;;;;;;;;;;;;4407380;32;20091;-77
2022/03/29 09:02:12;;;;;;;51.00;33.08;;;;;;;;;;4404596;32;19943;-77
2022/03/29 09:04:38;;;;;;;53.03;32.50;;;;;;;;;;4407508;32;20083;-78
2022/03/29 09:07:03;;;;;;;;;;;;;;;;;;4405449;32;20022;-78
2022/03/29 09:09:30;;;;;;;61.28;33.78;;;;;;;;;;4405960;32;19976;-78
2022/03/29 09:11:56;;;;;;;48.70;32.17;;;;;;;;;;4405082;32;20226;-76
2022/03/29 09:14:22;;;;;;;50.95;34.80;;;;;;;;;;4405901;32;20034;-78
2022/03/29 09:16:47;;;;;;;;;;;;;;;;;;4406859;32;20427;-77
2022/03/29 09:19:12;;;;;;;50.20;32.53;;;;;;;;;;4407252;32;19977;-77
2022/03/29 09:21:37;;;;;;;;;;;;;;;;;;4405172;32;20126;-77
2022/03/29 09:24:04;;;;;;;49.30;32.47;;;;;;;;;;4407388;32;19979;-78
2022/03/29 09:26:32;;;;;;;47.47;32.72;;;;;;;;;;4406016;32;20029;-77
2022/03/29 09:28:58;;;;;;;53.78;34.83;;;;;;;;;;4406013;32;20060;-77
2022/03/29 09:31:24;;;;;;;;;;;;;;;;;;4406637;32;20038;-77
2022/03/29 09:33:51;;;;;;;54.42;32.10;;;;;;;;;;4405708;32;19937;-76
2022/03/29 09:36:20;;;;;;;;;;;;;;;;;;4405192;32;20027;-77
2022/03/29 09:38:47;;;;;;;48.45;33.47;;;;;;;;;;4405771;32;19981;-76
2022/03/29 09:41:32;;;;;;;49.65;32.75;;;;;;;;;;4404916;32;20082;-76
2022/03/29 09:44:02;;;;;;;47.08;31.67;;;;;;;;;;4407649;32;20052;-77
2022/03/29 09:46:27;;;;;;;50.45;32.92;;;;;;;;;;4407901;32;20060;-77
2022/03/29 09:48:52;;;;;;;;;;;;;;;;;;4411599;32;20408;-77
2022/03/29 09:51:19;;;;;;;44.08;30.30;;;;;;;;;;4413320;32;19978;-77
2022/03/29 09:53:48;;;;;;;50.75;32.92;;;;;;;;;;4412709;32;20069;-77
2022/03/29 09:56:16;;;;;;;50.95;31.58;;;;;;;;;;4416530;32;20087;-78
2022/03/29 09:58:42;;;;;;;53.30;32.13;;;;;;;;;;4412069;32;20042;-79
2022/03/29 10:01:07;;;;;;;;;;;;;;;;;;4401662;32;20073;-78
2022/03/29 10:03:35;;;;;;;47.90;32.33;;;;;;;;;;4416563;32;19946;-78
2022/03/29 10:06:03;;;;;;;45.08;30.48;;;;;;;;;;4414712;32;20151;-79
2022/03/29 10:11:15;;;;;;;51.37;32.15;;;;;;;;;;4415385;32;20145;-79
2022/03/29 10:13:40;;;;;;;;;;;;;;;;;;4411687;32;20487;-80
2022/03/29 10:16:09;;;;;;;50.75;33.28;;;;;;;;;;4412141;32;20039;-79
2022/03/29 10:18:35;;;;;;;52.90;31.92;;;;;;;;;;4414314;32;20068;-78
2022/03/29 10:21:01;;;;;;;;;;;;;;;;;;4409331;32;20031;-78
2022/03/29 10:23:28;;;;;;;51.95;34.33;;;;;;;;;;4414158;32;19957;-78
2022/03/29 10:25:53;;;;;;;54.83;32.20;;;;;;;;;;4411750;32;20031;-77
2022/03/29 10:28:21;;;;;;;;;;;;;;;;;;4411981;32;20025;-77
2022/03/29 10:30:46;;;;;;;57.25;34.55;;;;;;;;;;4412638;32;19945;-76
2022/03/29 10:33:11;;;;;;;;;;;;;;;;;;4412734;32;20456;-77
2022/03/29 10:35:57;;;;;;;57.40;33.63;;;;;;;;;;4409061;32;20063;-78
2022/03/29 10:38:22;;;;;;;52.67;33.85;;;;;;;;;;4414958;32;20045;-76
2022/03/29 10:40:47;;;;;;;;;;;;;;;;;;4414798;32;20084;-77
2022/03/29 10:43:26;;;;;;;50.05;31.58;;;;;;;;;;4417636;32;19949;-77
2022/03/29 10:45:51;;;;;;;45.55;30.90;;;;;;;;;;4419526;32;20037;-77
2022/03/29 10:48:16;;;;;;;;;;;;;;;;;;4424406;32;20025;-78
2022/03/29 10:50:53;;;;;;;50.42;32.75;;;;;;;;;;4418022;32;20027;-77
2022/03/29 10:53:25;;;;;;;49.35;32.25;;;;;;;;;;4415873;32;20453;-78
2022/03/29 10:56:09;;;;;;;51.25;32.38;;;;;;;;;;4411350;32;20076;-78
2022/03/29 10:58:34;;;;;;;41.33;30.02;;;;;;;;;;4415571;32;20089;-77
2022/03/29 11:01:12;;;;;;;53.08;30.40;;;;;;;;;;4416316;32;20378;-77
2022/03/29 11:03:57;;;;;;;51.03;32.25;;;;;;;;;;4410749;32;20079;-77
2022/03/29 11:06:22;;;;;;;40.58;28.67;;;;;;;;;;4413191;32;20029;-77
2022/03/29 11:08:48;;;;;;;43.00;31.50;;;;;;;;;;4417543;32;20069;-78
2022/03/29 11:11:32;;;;;;;40.60;28.73;;;;;;;;;;4417512;32;20392;-79
2022/03/29 11:14:17;;;;;;;44.67;30.37;;;;;;;;;;4407929;32;20093;-78
2022/03/29 11:16:42;;;;;;;40.15;28.05;;;;;;;;;;4410940;32;20029;-79
2022/03/29 11:19:27;;;;;;;41.22;29.80;;;;;;;;;;4412842;32;20075;-79
2022/03/29 11:21:53;;;;;;;41.78;29.15;;;;;;;;;;4410932;32;20056;-77
2022/03/29 11:24:20;;;;;;;43.75;30.20;;;;;;;;;;4418043;32;20030;-78
2022/03/29 11:26:55;;;;;;;38.63;28.23;;;;;;;;;;4413661;32;20141;-79
2022/03/29 11:29:21;;;;;;;52.05;34.42;;;;;;;;;;4415824;32;20056;-78
2022/03/29 11:31:47;;;;;;;42.45;30.15;;;;;;;;;;4415113;32;20035;-78
2022/03/29 11:34:12;;;;;;;51.22;32.92;;;;;;;;;;4415612;32;20391;-77
2022/03/29 11:36:37;;;;;;;;;;;;;;;;;;4414200;32;20417;-77
2022/03/29 11:39:06;;;;;;;40.67;28.85;;;;;;;;;;4413024;32;19987;-77
2022/03/29 11:41:33;;;;;;;35.50;26.58;;;;;;;;;;4418031;32;20146;-78
2022/03/29 11:44:00;;;;;;;44.10;28.80;;;;;;;;;;4413830;32;20079;-78
2022/03/29 11:46:41;;;;;;;41.55;26.90;;;;;;;;;;4412156;32;20118;-78
2022/03/29 11:49:06;;;;;;;43.72;27.87;;;;;;;;;;4415259;32;20025;-78
2022/03/29 11:51:31;;;;;;;39.40;28.92;;;;;;;;;;4415066;32;20064;-77
2022/03/29 11:53:56;;;;;;;;;;;;;;;;;;4419093;32;20507;-77
2022/03/29 11:56:22;;;;;;;46.80;28.55;;;;;;;;;;4411100;32;19964;-79
2022/03/29 11:58:51;;;;;;;42.03;29.17;;;;;;;;;;4412096;32;20420;-77
2022/03/29 12:01:18;;;;;;;43.97;28.87;;;;;;;;;;4413335;32;20064;-77
2022/03/29 12:03:45;;;;;;;42.97;29.12;;;;;;;;;;4411235;32;20026;-78
2022/03/29 12:06:14;;;;;;;40.53;28.62;;;;;;;;;;4415151;32;20367;-78
2022/03/29 12:08:45;;;;;;;38.17;28.67;;;;;;;;;;4414935;32;20061;-78
2022/03/29 12:11:11;;;;;;;44.63;32.53;;;;;;;;;;4412132;32;20049;-77
2022/03/29 12:13:36;;;;;;;42.25;27.70;;;;;;;;;;4415409;32;20573;-78
2022/03/29 12:16:01;;;;;;;;;;;;;;;;;;4414043;32;20026;-79
2022/03/29 12:18:41;;;;;;;41.72;27.62;;;;;;;;;;4411016;32;19964;-79
2022/03/29 12:21:11;;;;;;;37.97;26.37;;;;;;;;;;4412367;32;20026;-78
2022/03/29 12:23:36;;;;;;;38.65;27.65;;;;;;;;;;4411533;32;20045;-79
2022/03/29 12:26:02;;;;;;;31.00;23.95;;;;;;;;;;4410333;32;20031;-78
2022/03/29 12:28:27;;;;;;;37.72;26.40;;;;;;;;;;4411824;32;20435;-80
2022/03/29 12:30:54;;;;;;;42.92;27.52;;;;;;;;;;4410353;32;20068;-77
2022/03/29 12:33:20;;;;;;;37.33;27.77;;;;;;;;;;4408639;32;20042;-79
2022/03/29 12:35:45;;;;;;;37.20;25.95;;;;;;;;;;4412119;32;20022;-78
2022/03/29 12:38:11;;;;;;;38.85;26.98;;;;;;;;;;4413747;32;20037;-78
2022/03/29 12:40:37;;;;;;;34.88;26.20;;;;;;;;;;4413018;32;20153;-78
2022/03/29 12:43:09;;;;;;;39.92;29.20;;;;;;;;;;4409605;32;20069;-78
2022/03/29 12:45:34;;;;;;;39.63;27.60;;;;;;;;;;4414474;32;20031;-77
2022/03/29 12:48:01;;;;;;;36.13;27.67;;;;;;;;;;4413683;32;20034;-79
2022/03/29 12:50:27;;;;;;;34.50;26.52;;;;;;;;;;4410805;32;20352;-78
2022/03/29 12:52:52;;;;;;;36.15;28.15;;;;;;;;;;4413290;32;20045;-78
2022/03/29 12:55:21;;;;;;;37.13;25.80;;;;;;;;;;4409241;32;20415;-78
2022/03/29 12:57:46;;;;;;;39.72;25.62;;;;;;;;;;4413668;32;20030;-78
2022/03/29 13:00:14;;;;;;;35.88;26.73;;;;;;;;;;4416352;32;20449;-78
2022/03/29 13:02:41;;;;;;;38.63;27.27;;;;;;;;;;4417273;32;20060;-77
2022/03/29 13:05:07;;;;;;;33.50;25.55;;;;;;;;;;4417921;32;20053;-77
2022/03/29 13:07:44;;;;;;;35.85;26.85;;;;;;;;;;4417540;32;20040;-78
2022/03/29 13:10:11;;;;;;;32.22;24.77;;;;;;;;;;4416782;32;20459;-79
2022/03/29 13:12:56;;;;;;;32.92;25.73;;;;;;;;;;4412809;32;20126;-78
2022/03/29 13:15:40;;;;;;;36.83;26.33;;;;;;;;;;4413167;32;20048;-79
2022/03/29 13:18:25;;;;;;;34.78;24.83;;;;;;;;;;4412682;32;20026;-78
2022/03/29 13:20:51;;;;;;;39.53;26.52;;;;;;;;;;4413235;32;20057;-77
2022/03/29 13:23:32;;;;;;;34.92;24.20;;;;;;;;;;4411216;32;20084;-77
2022/03/29 13:25:57;;;;;;;30.55;23.52;;;;;;;;;;4408934;32;20042;-78
2022/03/29 13:28:23;;;;;;;33.72;24.48;;;;;;;;;;4412184;32;20026;-77
2022/03/29 13:30:48;;;;;;;39.00;25.48;;;;;;;;;;4414168;32;20155;-78
2022/03/29 13:33:13;;;;;;;37.78;24.60;;;;;;;;;;4412299;32;20033;-78
2022/03/29 13:35:42;;;;;;;32.75;22.05;;;;;;;;;;4411709;32;20349;-77
2022/03/29 13:38:08;;;;;;;32.13;23.90;;;;;;;;;;4408375;32;20114;-78
2022/03/29 13:40:33;;;;;;;28.10;22.35;;;;;;;;;;4412377;32;20022;-79
2022/03/29 13:42:58;;;;;;;39.70;27.90;;;;;;;;;;4411164;32;20075;-79
2022/03/29 13:45:23;;;;;;;35.17;27.03;;;;;;;;;;4411157;32;20034;-79
2022/03/29 13:47:48;;;;;;;34.70;25.60;;;;;;;;;;4409582;32;20118;-76
2022/03/29 13:50:15;;;;;;;32.25;25.37;;;;;;;;;;4408255;32;20160;-78
2022/03/29 13:52:40;;;;;;;33.40;24.95;;;;;;;;;;4411717;32;20034;-79
2022/03/29 13:55:05;;;;;;;36.75;26.40;;;;;;;;;;4408946;32;20060;-78
2022/03/29 13:57:31;;;;;;;33.05;25.10;;;;;;;;;;4411314;32;20344;-78
2022/03/29 13:59:56;;;;;;;31.37;23.83;;;;;;;;;;4411106;32;20026;-78
2022/03/29 14:02:21;;;;;;;35.50;24.08;;;;;;;;;;4413362;32;20423;-78
2022/03/29 14:04:47;;;;;;;29.87;23.52;;;;;;;;;;4413932;32;20034;-78
2022/03/29 14:07:12;;;;;;;42.70;24.33;;;;;;;;;;4413830;32;20050;-79
2022/03/29 14:09:37;;;;;;;30.98;23.98;;;;;;;;;;4411410;32;20049;-79
2022/03/29 14:12:03;;;;;;;33.73;25.33;;;;;;;;;;4412848;32;20082;-78
2022/03/29 14:14:28;;;;;;;31.45;25.33;;;;;;;;;;4409934;32;20447;-78
2022/03/29 14:16:54;;;;;;;32.20;24.20;;;;;;;;;;4408833;32;20403;-78
2022/03/29 14:19:19;;;;;;;30.95;23.50;;;;;;;;;;4409656;32;20317;-78
2022/03/29 14:21:44;;;;;;;25.10;20.77;;;;;;;;;;4413172;32;20063;-77
2022/03/29 14:24:09;;;;;;;27.62;23.02;;;;;;;;;;4410273;32;20637;-77
2022/03/29 14:26:34;;;;;;;28.60;21.60;;;;;;;;;;4397547;32;20408;-78
2022/03/29 14:29:00;;;;;;;29.02;23.10;;;;;;;;;;4412182;32;20134;-79
2022/03/29 14:31:25;;;;;;;31.10;22.13;;;;;;;;;;4416095;32;20050;-78
2022/03/29 14:33:51;;;;;;;29.58;22.25;;;;;;;;;;4412545;32;20391;-77
2022/03/29 14:36:16;;;;;;;27.62;21.77;;;;;;;;;;4414065;32;20442;-77
2022/03/29 14:38:41;;;;;;;33.72;22.42;;;;;;;;;;4413504;32;20034;-78
2022/03/29 14:41:07;;;;;;;24.50;20.42;;;;;;;;;;4417386;32;20026;-78
2022/03/29 14:43:32;;;;;;;28.42;21.85;;;;;;;;;;4417785;32;20025;-78
2022/03/29 14:45:59;;;;;;;25.60;21.20;;;;;;;;;;4417725;32;20072;-78
2022/03/29 14:48:25;;;;;;;28.95;22.15;;;;;;;;;;4409750;32;20554;-78
2022/03/29 14:50:50;;;;;;;28.60;22.67;;;;;;;;;;4404243;32;20304;-77
2022/03/29 14:53:17;;;;;;;29.50;20.40;;;;;;;;;;4406244;32;20030;-78
2022/03/29 14:55:42;;;;;;;24.87;18.75;;;;;;;;;;4412717;32;20400;-77
2022/03/29 14:58:07;;;;;;;31.37;20.60;;;;;;;;;;4410441;32;20026;-78